sensor_id;sensor_type;location;lat;lon;timestamp;P1;durP1;ratioP1;P2;durP2;ratioP2
54555;SDS011;57291;37.520;15.106;2023-03-23T00:01:26;14.98;;;12.18;;
54555;SDS011;57291;37.520;15.106;2023-03-23T00:03:56;19.55;;;13.75;;
54555;SDS011;57291;37.520;15.106;2023-03-23T00:06:24;19.75;;;13.52;;
54555;SDS011;57291;37.520;15.106;2023-03-23T00:08:53;19.85;;;12.95;;
54555;SDS011;57291;37.520;15.106;2023-03-23T00:11:26;18.35;;;13.32;;
54555;SDS011;57291;37.520;15.106;2023-03-23T00:13:57;16.98;;;12.50;;
54555;SDS011;57291;37.520;15.106;2023-03-23T00:16:27;18.60;;;13.60;;
54555;SDS011;57291;37.520;15.106;2023-03-23T00:19:01;18.98;;;13.38;;
54555;SDS011;57291;37.520;15.106;2023-03-23T00:21:30;21.20;;;14.27;;
54555;SDS011;57291;37.520;15.106;2023-03-23T00:24:05;18.40;;;13.23;;
54555;SDS011;57291;37.520;15.106;2023-03-23T00:26:34;16.42;;;12.95;;
54555;SDS011;57291;37.520;15.106;2023-03-23T00:29:07;17.05;;;13.23;;
54555;SDS011;57291;37.520;15.106;2023-03-23T00:31:49;18.33;;;12.38;;
54555;SDS011;57291;37.520;15.106;2023-03-23T00:34:18;15.25;;;10.93;;
54555;SDS011;57291;37.520;15.106;2023-03-23T00:36:51;14.65;;;11.15;;
54555;SDS011;57291;37.520;15.106;2023-03-23T00:39:24;18.98;;;11.80;;
54555;SDS011;57291;37.520;15.106;2023-03-23T00:45:14;16.55;;;11.32;;
54555;SDS011;57291;37.520;15.106;2023-03-23T00:47:40;16.20;;;11.13;;
54555;SDS011;57291;37.520;15.106;2023-03-23T00:50:12;15.88;;;12.02;;
54555;SDS011;57291;37.520;15.106;2023-03-23T00:52:39;15.90;;;12.07;;
54555;SDS011;57291;37.520;15.106;2023-03-23T00:55:06;17.38;;;11.68;;
54555;SDS011;57291;37.520;15.106;2023-03-23T00:57:32;18.23;;;12.02;;
54555;SDS011;57291;37.520;15.106;2023-03-23T00:59:58;14.73;;;11.60;;
54555;SDS011;57291;37.520;15.106;2023-03-23T01:02:24;15.25;;;11.38;;
54555;SDS011;57291;37.520;15.106;2023-03-23T01:04:51;15.82;;;11.75;;
54555;SDS011;57291;37.520;15.106;2023-03-23T01:07:20;15.25;;;11.45;;
54555;SDS011;57291;37.520;15.106;2023-03-23T01:09:48;16.20;;;11.35;;
54555;SDS011;57291;37.520;15.106;2023-03-23T01:15:59;17.83;;;12.77;;
54555;SDS011;57291;37.520;15.106;2023-03-23T01:18:25;19.35;;;12.77;;
54555;SDS011;57291;37.520;15.106;2023-03-23T01:20:53;17.38;;;12.88;;
54555;SDS011;57291;37.520;15.106;2023-03-23T01:23:19;19.20;;;12.60;;
54555;SDS011;57291;37.520;15.106;2023-03-23T01:25:45;19.90;;;12.85;;
54555;SDS011;57291;37.520;15.106;2023-03-23T01:28:11;18.52;;;12.27;;
54555;SDS011;57291;37.520;15.106;2023-03-23T01:30:37;18.55;;;13.35;;
54555;SDS011;57291;37.520;15.106;2023-03-23T01:33:03;21.67;;;14.10;;
54555;SDS011;57291;37.520;15.106;2023-03-23T01:35:29;18.95;;;13.52;;
54555;SDS011;57291;37.520;15.106;2023-03-23T01:37:56;16.73;;;12.63;;
54555;SDS011;57291;37.520;15.106;2023-03-23T01:40:22;16.02;;;12.13;;
54555;SDS011;57291;37.520;15.106;2023-03-23T01:42:48;16.88;;;11.60;;
54555;SDS011;57291;37.520;15.106;2023-03-23T01:47:49;18.38;;;13.35;;
54555;SDS011;57291;37.520;15.106;2023-03-23T01:50:22;17.77;;;12.00;;
54555;SDS011;57291;37.520;15.106;2023-03-23T01:52:51;18.60;;;12.85;;
54555;SDS011;57291;37.520;15.106;2023-03-23T01:55:21;17.33;;;11.98;;
54555;SDS011;57291;37.520;15.106;2023-03-23T01:57:50;15.75;;;12.10;;
54555;SDS011;57291;37.520;15.106;2023-03-23T02:00:16;18.00;;;13.45;;
54555;SDS011;57291;37.520;15.106;2023-03-23T02:02:49;20.63;;;12.80;;
54555;SDS011;57291;37.520;15.106;2023-03-23T02:05:22;21.25;;;12.63;;
54555;SDS011;57291;37.520;15.106;2023-03-23T02:07:56;14.65;;;11.95;;
54555;SDS011;57291;37.520;15.106;2023-03-23T02:10:31;18.40;;;11.93;;
54555;SDS011;57291;37.520;15.106;2023-03-23T02:12:59;16.60;;;11.93;;
54555;SDS011;57291;37.520;15.106;2023-03-23T02:15:31;18.50;;;13.30;;
54555;SDS011;57291;37.520;15.106;2023-03-23T02:18:11;18.52;;;13.15;;
54555;SDS011;57291;37.520;15.106;2023-03-23T02:29:48;17.35;;;12.25;;
54555;SDS011;57291;37.520;15.106;2023-03-23T02:35:35;23.45;;;14.88;;
54555;SDS011;57291;37.520;15.106;2023-03-23T02:38:08;19.75;;;14.13;;
54555;SDS011;57291;37.520;15.106;2023-03-23T02:40:48;21.13;;;14.52;;
54555;SDS011;57291;37.520;15.106;2023-03-23T02:43:18;21.75;;;15.40;;
54555;SDS011;57291;37.520;15.106;2023-03-23T02:45:49;23.38;;;15.38;;
54555;SDS011;57291;37.520;15.106;2023-03-23T02:48:18;21.92;;;14.43;;
54555;SDS011;57291;37.520;15.106;2023-03-23T02:50:49;21.70;;;14.85;;
54555;SDS011;57291;37.520;15.106;2023-03-23T02:53:19;22.88;;;14.48;;
54555;SDS011;57291;37.520;15.106;2023-03-23T02:55:52;25.30;;;14.88;;
54555;SDS011;57291;37.520;15.106;2023-03-23T02:58:24;18.95;;;13.40;;
54555;SDS011;57291;37.520;15.106;2023-03-23T03:00:51;20.08;;;13.48;;
54555;SDS011;57291;37.520;15.106;2023-03-23T03:03:21;19.10;;;13.25;;
54555;SDS011;57291;37.520;15.106;2023-03-23T03:05:56;18.90;;;13.40;;
54555;SDS011;57291;37.520;15.106;2023-03-23T03:08:55;20.08;;;12.68;;
54555;SDS011;57291;37.520;15.106;2023-03-23T03:11:26;18.08;;;12.52;;
54555;SDS011;57291;37.520;15.106;2023-03-23T03:13:54;17.95;;;13.63;;
54555;SDS011;57291;37.520;15.106;2023-03-23T03:16:27;20.38;;;14.30;;
54555;SDS011;57291;37.520;15.106;2023-03-23T03:19:27;21.20;;;13.57;;
54555;SDS011;57291;37.520;15.106;2023-03-23T03:21:57;18.27;;;13.05;;
54555;SDS011;57291;37.520;15.106;2023-03-23T03:24:36;18.45;;;13.07;;
54555;SDS011;57291;37.520;15.106;2023-03-23T03:27:05;18.00;;;13.50;;
54555;SDS011;57291;37.520;15.106;2023-03-23T03:29:47;18.38;;;13.18;;
54555;SDS011;57291;37.520;15.106;2023-03-23T03:32:20;17.85;;;12.68;;
54555;SDS011;57291;37.520;15.106;2023-03-23T03:34:52;17.58;;;13.45;;
54555;SDS011;57291;37.520;15.106;2023-03-23T03:37:19;18.45;;;13.50;;
54555;SDS011;57291;37.520;15.106;2023-03-23T03:39:49;18.23;;;13.30;;
54555;SDS011;57291;37.520;15.106;2023-03-23T03:42:16;17.67;;;12.85;;
54555;SDS011;57291;37.520;15.106;2023-03-23T03:44:42;19.23;;;13.02;;
54555;SDS011;57291;37.520;15.106;2023-03-23T03:47:08;20.45;;;13.45;;
54555;SDS011;57291;37.520;15.106;2023-03-23T03:49:35;17.98;;;13.10;;
54555;SDS011;57291;37.520;15.106;2023-03-23T03:52:01;18.63;;;13.18;;
54555;SDS011;57291;37.520;15.106;2023-03-23T03:54:38;19.52;;;12.82;;
54555;SDS011;57291;37.520;15.106;2023-03-23T03:57:06;18.63;;;13.73;;
54555;SDS011;57291;37.520;15.106;2023-03-23T03:59:48;20.55;;;13.77;;
54555;SDS011;57291;37.520;15.106;2023-03-23T04:02:34;21.23;;;13.35;;
54555;SDS011;57291;37.520;15.106;2023-03-23T04:05:00;19.05;;;14.05;;
54555;SDS011;57291;37.520;15.106;2023-03-23T04:07:31;18.63;;;13.75;;
54555;SDS011;57291;37.520;15.106;2023-03-23T04:09:57;18.85;;;13.48;;
54555;SDS011;57291;37.520;15.106;2023-03-23T04:12:23;23.30;;;15.45;;
54555;SDS011;57291;37.520;15.106;2023-03-23T04:14:55;21.98;;;14.80;;
54555;SDS011;57291;37.520;15.106;2023-03-23T04:17:26;19.35;;;13.82;;
54555;SDS011;57291;37.520;15.106;2023-03-23T04:19:53;20.17;;;14.13;;
54555;SDS011;57291;37.520;15.106;2023-03-23T04:22:23;20.30;;;13.98;;
54555;SDS011;57291;37.520;15.106;2023-03-23T04:24:59;21.27;;;14.50;;
54555;SDS011;57291;37.520;15.106;2023-03-23T04:27:29;20.25;;;15.40;;
54555;SDS011;57291;37.520;15.106;2023-03-23T04:29:58;20.50;;;14.02;;
54555;SDS011;57291;37.520;15.106;2023-03-23T04:32:40;17.75;;;12.95;;
54555;SDS011;57291;37.520;15.106;2023-03-23T04:35:13;21.75;;;12.70;;
54555;SDS011;57291;37.520;15.106;2023-03-23T04:37:48;22.38;;;13.70;;
54555;SDS011;57291;37.520;15.106;2023-03-23T04:40:17;20.00;;;13.35;;
54555;SDS011;57291;37.520;15.106;2023-03-23T04:42:53;19.75;;;14.38;;
54555;SDS011;57291;37.520;15.106;2023-03-23T04:45:52;20.13;;;13.55;;
54555;SDS011;57291;37.520;15.106;2023-03-23T04:48:23;18.52;;;13.70;;
54555;SDS011;57291;37.520;15.106;2023-03-23T04:51:02;17.80;;;12.90;;
54555;SDS011;57291;37.520;15.106;2023-03-23T04:53:30;18.08;;;12.75;;
54555;SDS011;57291;37.520;15.106;2023-03-23T04:55:57;22.30;;;13.77;;
54555;SDS011;57291;37.520;15.106;2023-03-23T04:58:25;19.88;;;13.45;;
54555;SDS011;57291;37.520;15.106;2023-03-23T05:01:17;18.80;;;14.02;;
54555;SDS011;57291;37.520;15.106;2023-03-23T05:03:53;20.20;;;13.38;;
54555;SDS011;57291;37.520;15.106;2023-03-23T05:06:20;20.13;;;13.13;;
54555;SDS011;57291;37.520;15.106;2023-03-23T05:08:50;20.00;;;13.05;;
54555;SDS011;57291;37.520;15.106;2023-03-23T05:11:20;21.02;;;12.60;;
54555;SDS011;57291;37.520;15.106;2023-03-23T05:13:46;19.80;;;13.50;;
54555;SDS011;57291;37.520;15.106;2023-03-23T05:16:13;21.23;;;13.75;;
54555;SDS011;57291;37.520;15.106;2023-03-23T05:18:40;21.42;;;13.13;;
54555;SDS011;57291;37.520;15.106;2023-03-23T05:21:10;17.42;;;12.77;;
54555;SDS011;57291;37.520;15.106;2023-03-23T05:23:39;18.00;;;12.55;;
54555;SDS011;57291;37.520;15.106;2023-03-23T05:26:14;21.15;;;13.75;;
54555;SDS011;57291;37.520;15.106;2023-03-23T05:28:40;18.80;;;12.73;;
54555;SDS011;57291;37.520;15.106;2023-03-23T05:31:19;21.85;;;14.63;;
54555;SDS011;57291;37.520;15.106;2023-03-23T05:33:45;20.45;;;13.55;;
54555;SDS011;57291;37.520;15.106;2023-03-23T05:36:35;18.95;;;13.55;;
54555;SDS011;57291;37.520;15.106;2023-03-23T05:39:25;18.02;;;12.45;;
54555;SDS011;57291;37.520;15.106;2023-03-23T05:42:03;18.50;;;12.75;;
54555;SDS011;57291;37.520;15.106;2023-03-23T05:44:41;19.63;;;12.80;;
54555;SDS011;57291;37.520;15.106;2023-03-23T05:47:09;22.33;;;14.82;;
54555;SDS011;57291;37.520;15.106;2023-03-23T05:49:38;20.70;;;14.68;;
54555;SDS011;57291;37.520;15.106;2023-03-23T05:52:07;21.95;;;14.32;;
54555;SDS011;57291;37.520;15.106;2023-03-23T05:54:34;18.25;;;13.35;;
54555;SDS011;57291;37.520;15.106;2023-03-23T05:57:01;21.42;;;14.88;;
54555;SDS011;57291;37.520;15.106;2023-03-23T05:59:38;21.42;;;14.48;;
54555;SDS011;57291;37.520;15.106;2023-03-23T06:02:09;22.85;;;13.55;;
54555;SDS011;57291;37.520;15.106;2023-03-23T06:04:36;21.48;;;14.27;;
54555;SDS011;57291;37.520;15.106;2023-03-23T06:07:18;20.38;;;13.00;;
54555;SDS011;57291;37.520;15.106;2023-03-23T06:09:57;19.13;;;14.40;;
54555;SDS011;57291;37.520;15.106;2023-03-23T06:12:35;17.23;;;12.75;;
54555;SDS011;57291;37.520;15.106;2023-03-23T06:15:05;17.60;;;11.38;;
54555;SDS011;57291;37.520;15.106;2023-03-23T06:18:10;15.80;;;10.60;;
54555;SDS011;57291;37.520;15.106;2023-03-23T06:20:58;17.63;;;12.48;;
54555;SDS011;57291;37.520;15.106;2023-03-23T06:23:39;16.63;;;13.48;;
54555;SDS011;57291;37.520;15.106;2023-03-23T06:26:06;17.10;;;13.52;;
54555;SDS011;57291;37.520;15.106;2023-03-23T06:28:36;19.23;;;13.60;;
54555;SDS011;57291;37.520;15.106;2023-03-23T06:31:04;15.77;;;12.30;;
54555;SDS011;57291;37.520;15.106;2023-03-23T06:33:34;18.55;;;12.85;;
54555;SDS011;57291;37.520;15.106;2023-03-23T06:36:19;13.43;;;10.10;;
54555;SDS011;57291;37.520;15.106;2023-03-23T06:38:52;14.27;;;10.27;;
54555;SDS011;57291;37.520;15.106;2023-03-23T06:41:26;17.52;;;12.45;;
54555;SDS011;57291;37.520;15.106;2023-03-23T06:43:52;15.57;;;11.18;;
54555;SDS011;57291;37.520;15.106;2023-03-23T06:46:25;18.40;;;12.38;;
54555;SDS011;57291;37.520;15.106;2023-03-23T06:48:52;17.23;;;13.00;;
54555;SDS011;57291;37.520;15.106;2023-03-23T06:51:24;20.70;;;11.88;;
54555;SDS011;57291;37.520;15.106;2023-03-23T06:53:54;22.17;;;12.63;;
54555;SDS011;57291;37.520;15.106;2023-03-23T06:56:20;18.85;;;12.52;;
54555;SDS011;57291;37.520;15.106;2023-03-23T06:58:46;15.77;;;10.50;;
54555;SDS011;57291;37.520;15.106;2023-03-23T07:01:14;14.75;;;10.23;;
54555;SDS011;57291;37.520;15.106;2023-03-23T07:03:49;16.27;;;10.35;;
54555;SDS011;57291;37.520;15.106;2023-03-23T07:06:20;18.20;;;9.38;;
54555;SDS011;57291;37.520;15.106;2023-03-23T07:08:53;13.73;;;10.13;;
54555;SDS011;57291;37.520;15.106;2023-03-23T07:11:25;11.63;;;8.40;;
54555;SDS011;57291;37.520;15.106;2023-03-23T07:13:54;13.27;;;9.30;;
54555;SDS011;57291;37.520;15.106;2023-03-23T07:16:20;16.67;;;8.23;;
54555;SDS011;57291;37.520;15.106;2023-03-23T07:18:46;12.13;;;8.88;;
54555;SDS011;57291;37.520;15.106;2023-03-23T07:21:12;14.32;;;8.32;;
54555;SDS011;57291;37.520;15.106;2023-03-23T07:23:40;10.50;;;7.35;;
54555;SDS011;57291;37.520;15.106;2023-03-23T07:26:09;13.80;;;8.82;;
54555;SDS011;57291;37.520;15.106;2023-03-23T07:28:44;11.48;;;8.30;;
54555;SDS011;57291;37.520;15.106;2023-03-23T07:31:41;11.10;;;8.13;;
54555;SDS011;57291;37.520;15.106;2023-03-23T07:34:09;17.20;;;9.38;;
54555;SDS011;57291;37.520;15.106;2023-03-23T07:36:55;12.60;;;9.55;;
54555;SDS011;57291;37.520;15.106;2023-03-23T07:39:24;13.35;;;9.80;;
54555;SDS011;57291;37.520;15.106;2023-03-23T07:41:53;16.77;;;9.60;;
54555;SDS011;57291;37.520;15.106;2023-03-23T07:44:33;14.45;;;7.88;;
54555;SDS011;57291;37.520;15.106;2023-03-23T07:47:07;11.68;;;7.47;;
54555;SDS011;57291;37.520;15.106;2023-03-23T07:49:34;17.13;;;8.45;;
54555;SDS011;57291;37.520;15.106;2023-03-23T07:52:19;13.07;;;8.38;;
54555;SDS011;57291;37.520;15.106;2023-03-23T07:54:46;12.75;;;7.63;;
54555;SDS011;57291;37.520;15.106;2023-03-23T07:57:38;11.73;;;8.60;;
54555;SDS011;57291;37.520;15.106;2023-03-23T08:00:05;10.32;;;7.80;;
54555;SDS011;57291;37.520;15.106;2023-03-23T08:02:54;12.85;;;8.10;;
54555;SDS011;57291;37.520;15.106;2023-03-23T08:05:31;12.13;;;9.13;;
54555;SDS011;57291;37.520;15.106;2023-03-23T08:08:14;14.50;;;10.05;;
54555;SDS011;57291;37.520;15.106;2023-03-23T08:11:00;16.45;;;8.45;;
54555;SDS011;57291;37.520;15.106;2023-03-23T08:13:46;9.07;;;7.20;;
54555;SDS011;57291;37.520;15.106;2023-03-23T08:16:38;11.48;;;8.38;;
54555;SDS011;57291;37.520;15.106;2023-03-23T08:19:16;12.70;;;7.85;;
54555;SDS011;57291;37.520;15.106;2023-03-23T08:21:51;12.05;;;7.10;;
54555;SDS011;57291;37.520;15.106;2023-03-23T08:24:39;12.93;;;8.05;;
54555;SDS011;57291;37.520;15.106;2023-03-23T08:27:23;18.98;;;8.48;;
54555;SDS011;57291;37.520;15.106;2023-03-23T08:30:07;21.77;;;8.25;;
54555;SDS011;57291;37.520;15.106;2023-03-23T08:32:46;12.95;;;8.68;;
54555;SDS011;57291;37.520;15.106;2023-03-23T08:35:33;14.05;;;8.18;;
54555;SDS011;57291;37.520;15.106;2023-03-23T08:38:26;14.25;;;7.55;;
54555;SDS011;57291;37.520;15.106;2023-03-23T08:41:25;12.15;;;7.55;;
54555;SDS011;57291;37.520;15.106;2023-03-23T08:44:06;12.55;;;7.95;;
54555;SDS011;57291;37.520;15.106;2023-03-23T08:47:03;12.80;;;7.30;;
54555;SDS011;57291;37.520;15.106;2023-03-23T08:49:59;10.98;;;7.93;;
54555;SDS011;57291;37.520;15.106;2023-03-23T08:52:42;11.32;;;7.60;;
54555;SDS011;57291;37.520;15.106;2023-03-23T08:55:28;14.05;;;8.77;;
54555;SDS011;57291;37.520;15.106;2023-03-23T08:58:21;13.10;;;8.35;;
54555;SDS011;57291;37.520;15.106;2023-03-23T09:01:16;13.15;;;8.07;;
54555;SDS011;57291;37.520;15.106;2023-03-23T09:03:42;13.38;;;9.02;;
54555;SDS011;57291;37.520;15.106;2023-03-23T09:06:31;15.10;;;9.20;;
54555;SDS011;57291;37.520;15.106;2023-03-23T09:08:58;13.27;;;7.65;;
54555;SDS011;57291;37.520;15.106;2023-03-23T09:11:26;14.82;;;8.77;;
54555;SDS011;57291;37.520;15.106;2023-03-23T09:13:52;14.60;;;7.55;;
54555;SDS011;57291;37.520;15.106;2023-03-23T09:16:18;14.93;;;8.07;;
54555;SDS011;57291;37.520;15.106;2023-03-23T09:18:44;17.23;;;8.88;;
54555;SDS011;57291;37.520;15.106;2023-03-23T09:21:10;12.43;;;8.00;;
54555;SDS011;57291;37.520;15.106;2023-03-23T09:23:35;12.00;;;8.35;;
54555;SDS011;57291;37.520;15.106;2023-03-23T09:26:02;13.40;;;7.85;;
54555;SDS011;57291;37.520;15.106;2023-03-23T09:28:28;13.63;;;8.90;;
54555;SDS011;57291;37.520;15.106;2023-03-23T09:30:55;16.70;;;8.82;;
54555;SDS011;57291;37.520;15.106;2023-03-23T09:33:24;14.60;;;8.68;;
54555;SDS011;57291;37.520;15.106;2023-03-23T09:35:51;16.30;;;8.73;;
54555;SDS011;57291;37.520;15.106;2023-03-23T09:38:17;13.27;;;7.50;;
54555;SDS011;57291;37.520;15.106;2023-03-23T09:40:51;19.42;;;9.15;;
54555;SDS011;57291;37.520;15.106;2023-03-23T09:46:46;14.68;;;8.30;;
54555;SDS011;57291;37.520;15.106;2023-03-23T09:48:53;13.20;;;8.25;;
54555;SDS011;57291;37.520;15.106;2023-03-23T09:54:49;16.52;;;8.98;;
54555;SDS011;57291;37.520;15.106;2023-03-23T09:57:27;15.18;;;8.93;;
54555;SDS011;57291;37.520;15.106;2023-03-23T10:00:11;15.82;;;8.80;;
54555;SDS011;57291;37.520;15.106;2023-03-23T10:07:57;17.00;;;9.70;;
54555;SDS011;57291;37.520;15.106;2023-03-23T10:10:34;15.27;;;9.00;;
54555;SDS011;57291;37.520;15.106;2023-03-23T10:15:48;13.90;;;9.27;;
54555;SDS011;57291;37.520;15.106;2023-03-23T10:18:17;15.07;;;9.02;;
54555;SDS011;57291;37.520;15.106;2023-03-23T10:29:14;12.40;;;8.25;;
54555;SDS011;57291;37.520;15.106;2023-03-23T10:31:46;14.05;;;10.00;;
54555;SDS011;57291;37.520;15.106;2023-03-23T10:34:32;11.30;;;8.38;;
54555;SDS011;57291;37.520;15.106;2023-03-23T10:37:08;12.20;;;8.43;;
54555;SDS011;57291;37.520;15.106;2023-03-23T10:39:51;15.20;;;8.65;;
54555;SDS011;57291;37.520;15.106;2023-03-23T10:44:54;14.38;;;9.43;;
54555;SDS011;57291;37.520;15.106;2023-03-23T10:47:22;13.05;;;9.43;;
54555;SDS011;57291;37.520;15.106;2023-03-23T10:52:41;13.13;;;8.00;;
54555;SDS011;57291;37.520;15.106;2023-03-23T10:55:10;12.75;;;8.43;;
54555;SDS011;57291;37.520;15.106;2023-03-23T10:57:37;14.70;;;8.65;;
54555;SDS011;57291;37.520;15.106;2023-03-23T11:00:07;13.18;;;8.10;;
54555;SDS011;57291;37.520;15.106;2023-03-23T11:02:42;13.25;;;8.07;;
54555;SDS011;57291;37.520;15.106;2023-03-23T11:05:16;13.73;;;8.73;;
54555;SDS011;57291;37.520;15.106;2023-03-23T11:07:49;10.00;;;7.50;;
54555;SDS011;57291;37.520;15.106;2023-03-23T11:10:22;13.85;;;8.75;;
54555;SDS011;57291;37.520;15.106;2023-03-23T11:12:57;12.35;;;8.02;;
54555;SDS011;57291;37.520;15.106;2023-03-23T11:15:28;12.20;;;7.70;;
54555;SDS011;57291;37.520;15.106;2023-03-23T11:17:59;12.63;;;8.85;;
54555;SDS011;57291;37.520;15.106;2023-03-23T11:20:28;11.95;;;7.80;;
54555;SDS011;57291;37.520;15.106;2023-03-23T11:22:59;17.50;;;8.73;;
54555;SDS011;57291;37.520;15.106;2023-03-23T11:25:25;11.98;;;7.00;;
54555;SDS011;57291;37.520;15.106;2023-03-23T11:27:52;13.40;;;7.78;;
54555;SDS011;57291;37.520;15.106;2023-03-23T11:30:20;11.90;;;8.05;;
54555;SDS011;57291;37.520;15.106;2023-03-23T11:32:49;11.02;;;6.57;;
54555;SDS011;57291;37.520;15.106;2023-03-23T11:35:22;8.20;;;6.65;;
54555;SDS011;57291;37.520;15.106;2023-03-23T11:37:56;8.35;;;6.07;;
54555;SDS011;57291;37.520;15.106;2023-03-23T11:40:25;14.45;;;7.43;;
54555;SDS011;57291;37.520;15.106;2023-03-23T11:43:13;10.35;;;6.35;;
54555;SDS011;57291;37.520;15.106;2023-03-23T11:45:54;8.00;;;6.18;;
54555;SDS011;57291;37.520;15.106;2023-03-23T11:51:08;12.27;;;6.50;;
54555;SDS011;57291;37.520;15.106;2023-03-23T11:59:01;9.35;;;5.60;;
54555;SDS011;57291;37.520;15.106;2023-03-23T12:01:47;11.32;;;6.22;;
54555;SDS011;57291;37.520;15.106;2023-03-23T12:04:21;9.30;;;6.35;;
54555;SDS011;57291;37.520;15.106;2023-03-23T12:20:38;9.23;;;5.65;;
54555;SDS011;57291;37.520;15.106;2023-03-23T12:26:28;9.75;;;6.20;;
54555;SDS011;57291;37.520;15.106;2023-03-23T12:40:35;11.35;;;6.90;;
54555;SDS011;57291;37.520;15.106;2023-03-23T12:49:34;10.05;;;6.88;;
54555;SDS011;57291;37.520;15.106;2023-03-23T12:55:08;13.50;;;7.53;;
54555;SDS011;57291;37.520;15.106;2023-03-23T13:00:28;9.15;;;6.00;;
54555;SDS011;57291;37.520;15.106;2023-03-23T13:03:02;10.18;;;6.15;;
54555;SDS011;57291;37.520;15.106;2023-03-23T13:08:18;11.32;;;7.05;;
54555;SDS011;57291;37.520;15.106;2023-03-23T13:10:49;13.85;;;6.53;;
54555;SDS011;57291;37.520;15.106;2023-03-23T13:13:23;10.13;;;7.03;;
54555;SDS011;57291;37.520;15.106;2023-03-23T13:21:26;9.43;;;6.80;;
54555;SDS011;57291;37.520;15.106;2023-03-23T13:24:08;12.13;;;6.72;;
54555;SDS011;57291;37.520;15.106;2023-03-23T13:26:39;10.40;;;7.82;;
54555;SDS011;57291;37.520;15.106;2023-03-23T13:29:15;10.55;;;6.80;;
54555;SDS011;57291;37.520;15.106;2023-03-23T13:31:45;14.65;;;6.15;;
54555;SDS011;57291;37.520;15.106;2023-03-23T13:34:23;11.63;;;7.55;;
54555;SDS011;57291;37.520;15.106;2023-03-23T13:39:21;13.60;;;7.60;;
54555;SDS011;57291;37.520;15.106;2023-03-23T13:49:56;10.55;;;6.70;;
54555;SDS011;57291;37.520;15.106;2023-03-23T13:57:52;10.52;;;6.68;;
54555;SDS011;57291;37.520;15.106;2023-03-23T14:00:26;9.15;;;6.90;;
54555;SDS011;57291;37.520;15.106;2023-03-23T14:03:00;10.85;;;6.47;;
54555;SDS011;57291;37.520;15.106;2023-03-23T14:13:32;12.95;;;6.68;;
54555;SDS011;57291;37.520;15.106;2023-03-23T14:16:16;17.35;;;7.20;;
54555;SDS011;57291;37.520;15.106;2023-03-23T14:21:31;15.52;;;7.65;;
54555;SDS011;57291;37.520;15.106;2023-03-23T14:24:02;12.60;;;7.07;;
54555;SDS011;57291;37.520;15.106;2023-03-23T14:26:33;14.18;;;7.28;;
54555;SDS011;57291;37.520;15.106;2023-03-23T14:29:00;12.18;;;6.90;;
54555;SDS011;57291;37.520;15.106;2023-03-23T14:31:28;9.55;;;6.72;;
54555;SDS011;57291;37.520;15.106;2023-03-23T14:33:55;10.48;;;7.25;;
54555;SDS011;57291;37.520;15.106;2023-03-23T14:36:27;9.30;;;6.63;;
54555;SDS011;57291;37.520;15.106;2023-03-23T14:39:16;10.15;;;6.40;;
54555;SDS011;57291;37.520;15.106;2023-03-23T14:44:50;14.15;;;7.05;;
54555;SDS011;57291;37.520;15.106;2023-03-23T14:47:18;13.85;;;6.78;;
54555;SDS011;57291;37.520;15.106;2023-03-23T14:49:52;11.50;;;6.55;;
54555;SDS011;57291;37.520;15.106;2023-03-23T14:52:21;12.25;;;7.03;;
54555;SDS011;57291;37.520;15.106;2023-03-23T14:54:50;12.50;;;6.70;;
54555;SDS011;57291;37.520;15.106;2023-03-23T14:57:18;12.65;;;6.90;;
54555;SDS011;57291;37.520;15.106;2023-03-23T14:59:53;9.18;;;6.82;;
54555;SDS011;57291;37.520;15.106;2023-03-23T15:04:57;11.98;;;7.13;;
54555;SDS011;57291;37.520;15.106;2023-03-23T15:07:33;10.80;;;6.70;;
54555;SDS011;57291;37.520;15.106;2023-03-23T15:10:08;12.27;;;7.20;;
54555;SDS011;57291;37.520;15.106;2023-03-23T15:12:43;10.55;;;7.00;;
54555;SDS011;57291;37.520;15.106;2023-03-23T15:18:01;10.25;;;6.85;;
54555;SDS011;57291;37.520;15.106;2023-03-23T15:20:31;10.38;;;6.22;;
54555;SDS011;57291;37.520;15.106;2023-03-23T15:23:21;8.88;;;5.90;;
54555;SDS011;57291;37.520;15.106;2023-03-23T15:25:53;14.02;;;5.82;;
54555;SDS011;57291;37.520;15.106;2023-03-23T15:28:27;11.52;;;6.40;;
54555;SDS011;57291;37.520;15.106;2023-03-23T15:30:57;9.68;;;5.68;;
54555;SDS011;57291;37.520;15.106;2023-03-23T15:33:34;10.82;;;5.53;;
54555;SDS011;57291;37.520;15.106;2023-03-23T15:36:05;14.00;;;5.82;;
54555;SDS011;57291;37.520;15.106;2023-03-23T15:38:42;8.68;;;5.22;;
54555;SDS011;57291;37.520;15.106;2023-03-23T15:41:23;16.70;;;5.28;;
54555;SDS011;57291;37.520;15.106;2023-03-23T15:43:55;9.18;;;5.57;;
54555;SDS011;57291;37.520;15.106;2023-03-23T15:46:25;8.18;;;4.72;;
54555;SDS011;57291;37.520;15.106;2023-03-23T15:48:53;9.02;;;5.35;;
54555;SDS011;57291;37.520;15.106;2023-03-23T15:53:53;10.63;;;5.22;;
54555;SDS011;57291;37.520;15.106;2023-03-23T15:56:20;11.32;;;5.70;;
54555;SDS011;57291;37.520;15.106;2023-03-23T15:58:47;12.30;;;5.45;;
54555;SDS011;57291;37.520;15.106;2023-03-23T16:01:18;11.05;;;5.75;;
54555;SDS011;57291;37.520;15.106;2023-03-23T16:03:49;11.90;;;5.63;;
54555;SDS011;57291;37.520;15.106;2023-03-23T16:06:23;13.30;;;6.00;;
54555;SDS011;57291;37.520;15.106;2023-03-23T16:08:52;10.82;;;6.07;;
54555;SDS011;57291;37.520;15.106;2023-03-23T16:11:21;9.85;;;5.63;;
54555;SDS011;57291;37.520;15.106;2023-03-23T16:13:50;9.75;;;6.35;;
54555;SDS011;57291;37.520;15.106;2023-03-23T16:16:18;9.80;;;5.80;;
54555;SDS011;57291;37.520;15.106;2023-03-23T16:18:48;13.57;;;6.30;;
54555;SDS011;57291;37.520;15.106;2023-03-23T16:21:16;10.82;;;5.13;;
54555;SDS011;57291;37.520;15.106;2023-03-23T16:23:43;9.82;;;5.63;;
54555;SDS011;57291;37.520;15.106;2023-03-23T16:26:13;15.68;;;5.95;;
54555;SDS011;57291;37.520;15.106;2023-03-23T16:28:41;12.93;;;6.00;;
54555;SDS011;57291;37.520;15.106;2023-03-23T16:31:09;10.27;;;5.93;;
54555;SDS011;57291;37.520;15.106;2023-03-23T16:33:37;13.45;;;5.68;;
54555;SDS011;57291;37.520;15.106;2023-03-23T16:36:06;12.02;;;5.70;;
54555;SDS011;57291;37.520;15.106;2023-03-23T16:38:34;12.07;;;6.18;;
54555;SDS011;57291;37.520;15.106;2023-03-23T16:41:15;11.00;;;6.07;;
54555;SDS011;57291;37.520;15.106;2023-03-23T16:43:42;11.32;;;5.85;;
54555;SDS011;57291;37.520;15.106;2023-03-23T16:46:10;13.00;;;5.88;;
54555;SDS011;57291;37.520;15.106;2023-03-23T16:48:39;10.73;;;5.28;;
54555;SDS011;57291;37.520;15.106;2023-03-23T16:51:06;12.77;;;5.82;;
54555;SDS011;57291;37.520;15.106;2023-03-23T16:53:33;14.40;;;5.72;;
54555;SDS011;57291;37.520;15.106;2023-03-23T16:56:02;9.95;;;6.10;;
54555;SDS011;57291;37.520;15.106;2023-03-23T16:58:30;15.27;;;6.13;;
54555;SDS011;57291;37.520;15.106;2023-03-23T17:00:57;13.52;;;6.32;;
54555;SDS011;57291;37.520;15.106;2023-03-23T17:03:24;11.30;;;6.22;;
54555;SDS011;57291;37.520;15.106;2023-03-23T17:05:52;11.20;;;6.53;;
54555;SDS011;57291;37.520;15.106;2023-03-23T17:08:19;13.43;;;6.82;;
54555;SDS011;57291;37.520;15.106;2023-03-23T17:10:47;13.57;;;6.10;;
54555;SDS011;57291;37.520;15.106;2023-03-23T17:13:15;10.52;;;6.45;;